createdAt,value
2017-06-15T02:11:10.296Z,942.5
2017-06-15T02:12:18.377Z,942.5
2017-06-15T02:13:26.585Z,942.5
2017-06-15T02:14:34.563Z,942.4
2017-06-15T02:15:42.770Z,942.4
2017-06-15T02:16:50.772Z,942.4
2017-06-15T02:17:59.004Z,942.4
2017-06-15T02:19:06.925Z,942.4
2017-06-15T02:20:15.022Z,942.4
2017-06-15T02:21:23.590Z,942.4
2017-06-15T02:22:31.171Z,942.4
2017-06-15T02:23:39.418Z,942.4
2017-06-15T02:24:47.352Z,942.4
2017-06-15T02:25:56.943Z,942.4
2017-06-15T02:27:03.640Z,942.5
2017-06-15T02:28:11.609Z,942.4
2017-06-15T02:29:19.694Z,942.5
2017-06-15T02:30:27.799Z,942.5
2017-06-15T02:31:35.879Z,942.5
2017-06-15T02:32:44.586Z,942.5
2017-06-15T02:33:52.057Z,942.5
2017-06-15T02:35:00.142Z,942.5
2017-06-15T02:36:08.263Z,942.5
2017-06-15T02:37:16.468Z,942.5
2017-06-15T02:38:24.461Z,942.5
2017-06-15T02:39:32.488Z,942.5
2017-06-15T02:40:40.578Z,942.5
2017-06-15T02:41:48.784Z,942.5
2017-06-15T02:42:56.889Z,942.5
2017-06-15T02:44:04.897Z,942.5
2017-06-15T02:45:12.938Z,942.5
2017-06-15T02:46:21.697Z,942.5
2017-06-15T02:47:29.779Z,942.5
2017-06-15T02:48:37.879Z,942.5
2017-06-15T02:49:45.647Z,942.5
2017-06-15T02:50:54.052Z,942.5
2017-06-15T02:52:01.607Z,942.5
2017-06-15T02:53:09.778Z,942.5
2017-06-15T02:54:17.911Z,942.5
2017-06-15T02:55:27.907Z,942.5
2017-06-15T02:56:33.864Z,942.5
2017-06-15T02:57:41.939Z,942.5
2017-06-15T02:58:50.327Z,942.5
2017-06-15T02:59:58.059Z,942.5
2017-06-15T03:01:06.267Z,942.6
2017-06-15T03:02:14.764Z,942.6
2017-06-15T03:03:22.778Z,942.6
2017-06-15T03:04:30.412Z,942.6
2017-06-15T03:05:38.649Z,942.6
2017-06-15T03:06:46.760Z,942.6
2017-06-15T03:07:54.667Z,942.6
2017-06-15T03:09:02.752Z,942.5
2017-06-15T03:10:10.921Z,942.6
2017-06-15T03:11:18.931Z,942.6
2017-06-15T03:12:27.073Z,942.6
2017-06-15T03:13:35.162Z,942.6
2017-06-15T03:14:43.482Z,942.5
2017-06-15T03:15:51.830Z,942.5
2017-06-15T03:16:59.379Z,942.6
2017-06-15T03:18:07.705Z,942.6
2017-06-15T03:19:15.570Z,942.6
2017-06-15T03:20:24.106Z,942.6
2017-06-15T03:21:32.301Z,942.6
2017-06-15T03:22:40.060Z,942.6
2017-06-15T03:23:48.318Z,942.6
2017-06-15T03:24:56.647Z,942.6
2017-06-15T03:26:04.194Z,942.6
2017-06-15T03:27:12.814Z,942.6
2017-06-15T03:28:20.237Z,942.6
2017-06-15T03:29:28.382Z,942.6
2017-06-15T03:30:36.496Z,942.7
2017-06-15T03:31:44.514Z,942.6
2017-06-15T03:32:52.611Z,942.6
2017-06-15T03:34:00.674Z,942.7
2017-06-15T03:35:08.893Z,942.6
2017-06-15T03:36:17.037Z,942.7
2017-06-15T03:37:24.947Z,942.6
2017-06-15T03:38:33.042Z,942.7
2017-06-15T03:39:41.247Z,942.6
2017-06-15T03:40:49.464Z,942.7
2017-06-15T03:41:57.437Z,942.7
2017-06-15T03:43:05.383Z,942.6
2017-06-15T03:44:13.477Z,942.7
2017-06-15T03:45:21.620Z,942.7
2017-06-15T03:46:29.772Z,942.6
2017-06-15T03:47:37.807Z,942.7
2017-06-15T03:48:45.826Z,942.6
2017-06-15T03:49:53.919Z,942.6
2017-06-15T03:51:02.004Z,942.6
2017-06-15T03:52:10.214Z,942.6
2017-06-15T03:53:18.178Z,942.6
2017-06-15T03:54:26.265Z,942.6
2017-06-15T03:55:34.352Z,942.6
2017-06-15T03:56:42.439Z,942.6
2017-06-15T03:57:50.585Z,942.7
2017-06-15T03:58:58.617Z,942.6
2017-06-15T04:00:06.701Z,942.6
2017-06-15T04:01:14.841Z,942.6
2017-06-15T04:02:22.876Z,942.6
2017-06-15T04:03:31.090Z,942.6
2017-06-15T04:04:39.240Z,942.6
2017-06-15T04:05:47.133Z,942.6
2017-06-15T04:06:55.223Z,942.6
2017-06-15T04:08:03.308Z,942.7
2017-06-15T04:09:11.455Z,942.7
2017-06-15T04:10:19.476Z,942.7
2017-06-15T04:11:27.675Z,942.7
2017-06-15T04:12:35.650Z,942.7
2017-06-15T04:13:43.736Z,942.7
2017-06-15T04:14:51.943Z,942.7
2017-06-15T04:15:59.908Z,942.7
2017-06-15T04:17:08.098Z,942.7
2017-06-15T04:18:16.080Z,942.7
2017-06-15T04:19:24.164Z,942.7
2017-06-15T04:20:32.310Z,942.7
2017-06-15T04:21:40.334Z,942.8
2017-06-15T04:22:48.421Z,942.8
2017-06-15T04:23:56.506Z,942.8
2017-06-15T04:25:04.593Z,942.8
2017-06-15T04:26:12.741Z,942.8
2017-06-15T04:27:20.770Z,942.7
2017-06-15T04:28:28.854Z,942.8
2017-06-15T04:29:36.939Z,942.8
2017-06-15T04:30:45.024Z,942.8
2017-06-15T04:31:53.232Z,942.8
2017-06-15T04:33:01.315Z,942.8
2017-06-15T04:34:09.434Z,942.8
2017-06-15T04:35:17.370Z,942.8
2017-06-15T04:36:25.450Z,942.8
2017-06-15T04:37:33.594Z,942.8
2017-06-15T04:38:41.621Z,942.8
2017-06-15T04:39:49.843Z,942.8
2017-06-15T04:40:57.941Z,942.8
2017-06-15T04:42:05.892Z,942.8
2017-06-15T04:43:14.083Z,942.8
2017-06-15T04:44:22.047Z,942.8
2017-06-15T04:45:30.135Z,942.8
2017-06-15T04:46:38.232Z,942.8
2017-06-15T04:47:46.307Z,942.8
2017-06-15T04:48:54.511Z,942.8
2017-06-15T04:50:02.475Z,942.8
2017-06-15T04:51:10.560Z,942.8
2017-06-15T04:52:18.733Z,942.8
2017-06-15T04:53:26.834Z,942.8
2017-06-15T04:54:34.937Z,942.8
2017-06-15T04:55:42.903Z,942.8
2017-06-15T04:56:50.988Z,942.8
2017-06-15T04:57:59.071Z,942.8
2017-06-15T04:59:07.156Z,942.8
2017-06-15T05:00:15.361Z,942.8
2017-06-15T05:01:23.327Z,942.8
2017-06-15T05:02:31.422Z,942.8
2017-06-15T05:03:39.498Z,942.7
2017-06-15T05:04:47.701Z,942.7
2017-06-15T05:05:55.833Z,942.7
2017-06-15T05:07:03.752Z,942.8
2017-06-15T05:08:11.835Z,942.7
2017-06-15T05:09:19.922Z,942.8
2017-06-15T05:10:28.009Z,942.7
2017-06-15T05:11:36.151Z,942.7
2017-06-15T05:12:44.181Z,942.7
2017-06-15T05:13:52.264Z,942.7
2017-06-15T05:15:00.538Z,942.8
2017-06-15T05:16:08.445Z,942.8
2017-06-15T05:17:16.589Z,942.8
2017-06-15T05:18:24.614Z,942.7
2017-06-15T05:19:32.701Z,942.8
2017-06-15T05:20:40.846Z,942.8
2017-06-15T05:21:49.014Z,942.7
2017-06-15T05:22:57.243Z,942.8
2017-06-15T05:24:05.042Z,942.7
2017-06-15T05:25:13.129Z,942.7
2017-06-15T05:26:21.229Z,942.7
2017-06-15T05:27:29.314Z,942.7
2017-06-15T05:28:37.560Z,942.7
2017-06-15T05:29:45.470Z,942.7
2017-06-15T05:30:53.557Z,942.7
2017-06-15T05:32:01.643Z,942.8
2017-06-15T05:33:09.728Z,942.7
2017-06-15T05:34:17.961Z,942.7
2017-06-15T05:35:25.937Z,942.8
2017-06-15T05:36:34.101Z,942.7
2017-06-15T05:37:42.067Z,942.8
2017-06-15T05:38:50.153Z,942.8
2017-06-15T05:39:58.362Z,942.8
2017-06-15T05:41:06.326Z,942.8
2017-06-15T05:42:14.411Z,942.8
2017-06-15T05:43:22.711Z,942.8
2017-06-15T05:44:30.582Z,942.8
2017-06-15T05:45:38.791Z,942.8
2017-06-15T05:46:46.765Z,942.8
2017-06-15T05:47:54.844Z,942.8
2017-06-15T05:49:02.926Z,942.8
2017-06-15T05:50:11.013Z,942.9
2017-06-15T05:51:19.155Z,942.9
2017-06-15T05:52:27.317Z,942.9
2017-06-15T05:53:35.267Z,942.9
2017-06-15T05:54:43.359Z,942.9
2017-06-15T05:55:51.451Z,942.9
2017-06-15T05:56:59.669Z,942.9
2017-06-15T05:58:07.898Z,942.9
2017-06-15T05:59:15.719Z,942.9
2017-06-15T06:00:23.806Z,942.9
2017-06-15T06:01:32.167Z,942.9
2017-06-15T06:02:40.095Z,942.9
2017-06-15T06:03:48.065Z,942.9
2017-06-15T06:04:56.149Z,942.9
2017-06-15T06:06:04.473Z,942.9
2017-06-15T06:07:12.323Z,943.0
2017-06-15T06:08:20.463Z,943.0
2017-06-15T06:09:28.509Z,943.0
2017-06-15T06:10:36.595Z,943.0
2017-06-15T06:11:45.168Z,943.0
2017-06-15T06:12:52.750Z,943.0
2017-06-15T06:14:00.958Z,943.0
2017-06-15T06:15:08.922Z,943.0
2017-06-15T06:16:17.010Z,943.0
2017-06-15T06:17:25.098Z,943.0
2017-06-15T06:18:33.183Z,943.0
2017-06-15T06:19:41.423Z,943.0
2017-06-15T06:20:49.522Z,943.0
2017-06-15T06:21:57.440Z,943.1
2017-06-15T06:23:05.524Z,943.0
2017-06-15T06:24:13.668Z,943.1
2017-06-15T06:25:21.758Z,943.1
2017-06-15T06:26:29.812Z,943.1
2017-06-15T06:27:37.998Z,943.1
2017-06-15T06:28:45.958Z,943.1
2017-06-15T06:29:54.164Z,943.1
2017-06-15T06:31:02.250Z,943.1
2017-06-15T06:32:10.214Z,943.1
2017-06-15T06:33:18.302Z,943.1
2017-06-15T06:34:26.388Z,943.1
2017-06-15T06:35:34.472Z,943.1
2017-06-15T06:36:44.068Z,943.1
2017-06-15T06:37:50.645Z,943.2
2017-06-15T06:38:58.734Z,943.2
2017-06-15T06:40:06.889Z,943.2
2017-06-15T06:41:14.903Z,943.2
2017-06-15T06:42:23.110Z,943.2
2017-06-15T06:43:31.154Z,943.2
2017-06-15T06:44:39.166Z,943.1
2017-06-15T06:45:47.247Z,943.1
2017-06-15T06:46:55.334Z,943.1
2017-06-15T06:48:03.479Z,943.1
2017-06-15T06:49:11.507Z,943.1
2017-06-15T06:50:19.589Z,943.2
2017-06-15T06:51:27.690Z,943.2
2017-06-15T06:52:35.771Z,943.1
2017-06-15T06:53:43.974Z,943.1
2017-06-15T06:54:51.968Z,943.2
2017-06-15T06:56:00.146Z,943.2
2017-06-15T06:57:08.113Z,943.2
2017-06-15T06:58:16.204Z,943.2
2017-06-15T06:59:24.341Z,943.1
2017-06-15T07:00:32.374Z,943.2
2017-06-15T07:01:40.470Z,943.2
2017-06-15T07:02:48.704Z,943.2
2017-06-15T07:03:56.645Z,943.2
2017-06-15T07:05:04.852Z,943.1
2017-06-15T07:06:12.819Z,943.2
2017-06-15T07:07:20.902Z,943.2
2017-06-15T07:08:29.142Z,943.2
2017-06-15T07:09:37.184Z,943.2
2017-06-15T07:10:45.219Z,943.2
2017-06-15T07:11:53.370Z,943.2
2017-06-15T07:13:01.334Z,943.2
2017-06-15T07:14:09.446Z,943.2
2017-06-15T07:15:17.540Z,943.2
2017-06-15T07:16:25.717Z,943.2
2017-06-15T07:17:33.682Z,943.2
2017-06-15T07:18:41.785Z,943.2
2017-06-15T07:19:49.855Z,943.2
2017-06-15T07:20:57.943Z,943.1
2017-06-15T07:22:06.150Z,943.2
2017-06-15T07:23:14.117Z,943.2
2017-06-15T07:24:22.207Z,943.2
2017-06-15T07:25:30.291Z,943.2
2017-06-15T07:26:38.381Z,943.2
2017-06-15T07:27:46.585Z,943.2
2017-06-15T07:28:54.550Z,943.1
2017-06-15T15:30:04.267Z,942.0
2017-06-15T15:31:12.249Z,942.0
2017-06-15T15:32:20.457Z,942.0
2017-06-15T15:33:28.412Z,942.0
2017-06-15T15:34:36.502Z,942.0
2017-06-15T15:35:44.722Z,942.0
2017-06-15T15:36:52.690Z,942.0
2017-06-15T15:38:00.860Z,942.0
2017-06-15T15:39:08.873Z,942.0
2017-06-15T15:40:16.971Z,942.0
2017-06-15T15:41:25.170Z,942.0
2017-06-15T15:42:33.137Z,942.0
2017-06-15T15:43:41.227Z,942.0
2017-06-15T15:44:49.436Z,942.1
2017-06-15T15:45:57.463Z,942.1
2017-06-15T15:47:05.555Z,942.0
2017-06-15T15:48:13.587Z,942.0
2017-06-15T15:49:21.678Z,942.0
2017-06-15T15:50:29.840Z,942.0
2017-06-15T15:51:37.857Z,942.0
2017-06-15T15:52:46.071Z,942.0
2017-06-15T15:53:54.040Z,942.0
2017-06-15T15:55:02.125Z,942.0
2017-06-15T15:56:10.215Z,942.0
2017-06-15T15:57:18.306Z,942.0
2017-06-15T15:58:26.451Z,942.0
2017-06-15T15:59:34.485Z,942.0
2017-06-15T16:00:42.573Z,941.9
2017-06-15T16:01:50.841Z,941.9
2017-06-15T16:02:58.752Z,941.9
2017-06-15T16:04:06.963Z,941.9
2017-06-15T16:05:14.931Z,941.8
2017-06-15T16:06:23.023Z,941.9
2017-06-15T16:07:31.181Z,941.8
2017-06-15T16:08:39.203Z,941.8
2017-06-15T16:09:47.348Z,941.8
2017-06-15T16:10:55.392Z,941.8
2017-06-15T16:12:03.479Z,941.8
2017-06-15T16:13:11.644Z,941.7
2017-06-15T16:14:19.661Z,941.7
2017-06-15T16:15:27.872Z,941.8
2017-06-15T16:16:35.847Z,941.8
2017-06-15T16:18:52.020Z,941.8
2017-06-15T16:20:00.109Z,941.8
2017-06-15T16:21:08.323Z,941.7
2017-06-15T16:22:16.288Z,941.8
2017-06-15T16:23:24.386Z,941.7
2017-06-15T16:24:32.468Z,941.8
2017-06-15T16:25:40.571Z,941.8
2017-06-15T16:26:48.781Z,941.8
2017-06-15T16:27:56.750Z,941.8
2017-06-15T16:29:04.841Z,941.8
2017-06-15T16:30:13.066Z,941.8
2017-06-15T16:31:21.021Z,941.7
2017-06-15T16:32:29.230Z,941.7
2017-06-15T16:33:37.256Z,941.6
2017-06-15T16:34:45.290Z,941.7
2017-06-15T16:35:53.447Z,941.7
2017-06-15T16:37:01.537Z,941.7
2017-06-15T16:38:09.678Z,941.8
2017-06-15T16:39:17.646Z,941.8
2017-06-15T16:40:25.737Z,941.8
2017-06-15T16:41:33.864Z,941.8
2017-06-15T16:42:41.967Z,941.8
2017-06-15T16:43:50.142Z,941.7
2017-06-15T16:44:58.096Z,941.7
2017-06-15T16:46:06.185Z,941.7
2017-06-15T16:47:14.274Z,941.7
2017-06-15T16:48:22.365Z,941.7
2017-06-15T16:49:30.577Z,941.7
2017-06-15T16:50:38.545Z,941.7
2017-06-15T16:51:46.632Z,941.7
2017-06-15T16:52:54.819Z,941.7
2017-06-15T16:54:03.006Z,941.8
2017-06-15T16:55:10.957Z,941.9
2017-06-15T16:56:18.989Z,941.9
2017-06-15T16:57:27.078Z,942.0
2017-06-15T16:58:35.164Z,942.1
2017-06-15T16:59:43.277Z,942.2
2017-06-15T17:00:51.471Z,942.3
2017-06-15T17:01:59.431Z,942.5
2017-06-15T17:03:07.522Z,942.5
2017-06-15T17:04:15.620Z,942.6
2017-06-15T17:05:23.854Z,942.5
2017-06-15T17:06:31.975Z,942.4
2017-06-15T17:07:39.885Z,942.2
2017-06-15T17:08:47.976Z,942.3
2017-06-15T17:09:56.155Z,942.2
2017-06-15T17:11:04.153Z,942.2
2017-06-15T17:12:12.299Z,942.2
2017-06-15T17:13:20.331Z,942.1
2017-06-15T17:14:28.419Z,942.0
2017-06-15T17:15:36.507Z,942.1
2017-06-15T17:16:44.595Z,942.1
2017-06-15T17:17:52.806Z,942.0
2017-06-15T17:19:00.774Z,942.1
2017-06-15T17:20:08.863Z,942.1
2017-06-15T17:21:17.073Z,942.2
2017-06-15T17:22:25.222Z,942.1
2017-06-15T17:23:33.288Z,942.1
2017-06-15T17:24:41.221Z,942.1
2017-06-15T17:25:49.310Z,942.1
2017-06-15T17:26:57.400Z,942.0
2017-06-15T17:28:05.501Z,942.0
2017-06-15T17:29:13.900Z,942.0
2017-06-15T17:30:21.677Z,942.0
2017-06-15T17:31:29.768Z,942.1
2017-06-15T17:32:37.856Z,942.1
2017-06-15T17:33:45.945Z,942.1
2017-06-15T17:34:54.179Z,942.1
2017-06-15T17:36:02.126Z,942.1
2017-06-15T17:37:10.336Z,942.2
2017-06-15T17:38:18.301Z,942.2
2017-06-15T17:39:26.392Z,942.2
2017-06-15T17:41:42.571Z,942.2
2017-06-15T17:42:50.660Z,942.2
2017-06-15T17:43:58.746Z,942.3
2017-06-15T17:45:06.852Z,942.3
2017-06-15T17:46:15.203Z,942.3
2017-06-15T17:47:23.015Z,942.4
2017-06-15T17:48:31.103Z,942.5
2017-06-15T17:49:39.196Z,942.5
2017-06-15T17:50:47.285Z,942.4
2017-06-15T17:51:55.574Z,942.3
2017-06-15T17:53:03.641Z,942.3
2017-06-15T17:54:11.559Z,942.3
2017-06-15T17:55:19.640Z,942.3
2017-06-15T17:56:27.728Z,942.3
2017-06-15T17:57:35.875Z,942.3
2017-06-15T17:58:43.930Z,942.4
2017-06-15T17:59:51.998Z,942.4
2017-06-15T18:01:00.088Z,942.3
2017-06-15T18:02:08.176Z,942.3
2017-06-15T18:03:16.384Z,942.3
2017-06-15T18:05:32.488Z,942.3
2017-06-15T18:06:40.536Z,942.3
2017-06-15T18:07:48.625Z,942.3
2017-06-15T18:10:04.804Z,942.4
2017-06-15T18:11:12.893Z,942.4
2017-06-15T18:12:20.980Z,942.4
2017-06-15T18:13:29.069Z,942.4
2017-06-15T18:14:37.214Z,942.4
2017-06-15T18:15:45.414Z,942.5
2017-06-15T18:19:09.621Z,942.5
2017-06-15T18:20:17.932Z,942.5
2017-06-15T18:21:25.764Z,942.5
2017-06-15T18:22:33.887Z,942.5
2017-06-15T18:23:41.878Z,942.5
2017-06-15T18:25:58.179Z,942.4
2017-06-15T18:27:06.147Z,942.4
2017-06-15T18:28:14.290Z,942.5
2017-06-15T18:29:22.476Z,942.5
2017-06-15T18:30:30.414Z,942.5
2017-06-15T18:31:38.623Z,942.4
2017-06-15T18:32:46.597Z,942.4
2017-06-15T18:33:54.682Z,942.4
2017-06-15T18:35:02.771Z,942.4
2017-06-15T18:36:10.859Z,942.4
2017-06-15T18:37:19.014Z,942.4
2017-06-15T18:38:27.898Z,942.5
2017-06-15T18:39:35.212Z,942.5
2017-06-15T18:40:43.338Z,942.5
2017-06-15T18:41:51.304Z,942.5
2017-06-15T18:42:59.525Z,942.5
2017-06-15T18:44:07.489Z,942.6
2017-06-15T18:45:15.708Z,942.6
2017-06-15T18:46:23.668Z,942.7
2017-06-15T18:47:31.760Z,942.7
2017-06-15T18:48:39.974Z,942.8
2017-06-15T18:49:47.939Z,942.8
2017-06-15T18:50:56.160Z,942.8
2017-06-15T18:52:04.115Z,942.8
2017-06-15T18:53:12.205Z,942.9
2017-06-15T18:54:20.351Z,943.0
2017-06-15T18:55:28.384Z,943.0
2017-06-15T18:56:36.595Z,943.0
2017-06-15T18:57:44.644Z,943.1
2017-06-15T18:58:52.651Z,943.1
2017-06-15T19:00:00.856Z,943.1
2017-06-15T19:01:08.825Z,943.2
2017-06-15T19:02:16.926Z,943.2
2017-06-15T19:04:33.095Z,943.4
2017-06-15T19:05:41.305Z,943.7
2017-06-15T19:06:49.273Z,943.7
2017-06-15T19:07:57.362Z,943.9
2017-06-15T19:09:05.447Z,943.9
2017-06-15T19:10:13.545Z,944.1
2017-06-15T19:11:21.743Z,944.1
2017-06-15T19:13:37.795Z,944.1
2017-06-15T19:15:53.974Z,944.1
2017-06-15T19:17:02.425Z,944.1
2017-06-15T19:18:10.232Z,944.1
2017-06-15T19:19:18.300Z,944.0
2017-06-15T19:21:34.413Z,943.5
2017-06-15T19:23:50.590Z,943.1
2017-06-15T19:26:06.939Z,943.1
2017-06-15T19:27:15.039Z,943.0
2017-06-15T19:28:23.058Z,943.1
2017-06-15T19:29:31.107Z,943.1
2017-06-15T19:30:39.203Z,943.1
2017-06-15T19:31:47.199Z,943.0
2017-06-15T19:32:55.460Z,943.0
2017-06-15T19:34:03.434Z,942.8
2017-06-15T19:35:11.466Z,942.6
2017-06-15T19:36:19.553Z,942.6
2017-06-15T19:37:27.636Z,942.8
2017-06-15T19:38:35.854Z,943.0
2017-06-15T19:39:44.068Z,943.1
2017-06-15T19:40:51.900Z,943.2
2017-06-15T19:41:59.994Z,943.2
2017-06-15T19:43:08.073Z,943.2
2017-06-15T19:44:16.285Z,943.2
2017-06-15T19:45:24.372Z,943.3
2017-06-15T19:46:32.340Z,943.3
2017-06-15T19:47:40.426Z,943.4
2017-06-15T19:48:48.514Z,943.4
2017-06-15T19:49:56.734Z,943.4
2017-06-15T19:51:04.857Z,943.4
2017-06-15T19:52:12.775Z,943.5
2017-06-15T19:53:21.036Z,943.5
2017-06-15T19:54:28.958Z,943.5
2017-06-15T19:55:37.128Z,943.5
2017-06-15T19:56:45.251Z,943.5
2017-06-15T19:57:53.339Z,943.6
2017-06-15T19:59:01.388Z,943.6
2017-06-15T20:00:09.512Z,943.5
2017-06-15T20:01:17.562Z,943.6
2017-06-15T20:02:26.067Z,943.6
2017-06-15T20:03:33.770Z,943.7
2017-06-15T20:04:41.738Z,943.7
2017-06-15T20:05:49.834Z,943.8
2017-06-15T20:06:57.921Z,943.8
2017-06-15T20:08:06.169Z,943.7
2017-06-15T20:09:14.169Z,943.7
2017-06-15T20:10:22.278Z,943.7
2017-06-15T20:11:30.320Z,943.8
2017-06-15T20:12:38.465Z,943.7
2017-06-15T20:13:46.698Z,943.8
2017-06-15T20:14:54.575Z,943.8
2017-06-15T20:16:02.677Z,943.7
2017-06-15T20:17:10.710Z,943.7
2017-06-15T20:18:18.801Z,943.7
2017-06-15T20:19:26.942Z,943.8
2017-06-15T20:20:35.001Z,943.8
2017-06-15T20:21:43.104Z,943.9
2017-06-15T20:22:51.146Z,943.9
2017-06-15T20:23:59.233Z,943.9
2017-06-15T20:25:07.375Z,943.9
2017-06-15T20:26:15.407Z,944.0
2017-06-15T20:27:23.498Z,944.1
2017-06-15T20:28:31.586Z,944.1
2017-06-15T20:29:39.669Z,944.1
2017-06-15T20:30:47.875Z,944.1
2017-06-15T20:31:55.966Z,944.1
2017-06-15T20:33:03.929Z,944.1
2017-06-15T20:34:12.016Z,944.1
2017-06-15T20:35:20.103Z,944.1
2017-06-15T20:36:28.248Z,944.1
2017-06-15T20:37:36.460Z,944.2
2017-06-15T20:38:44.485Z,944.1
2017-06-15T20:39:52.454Z,944.1
2017-06-15T20:41:00.543Z,944.1
2017-06-15T20:42:08.749Z,944.1
2017-06-15T20:43:16.715Z,944.1
2017-06-15T20:44:24.808Z,944.2
2017-06-15T20:45:32.899Z,944.1
2017-06-15T20:46:40.982Z,944.2
2017-06-15T20:47:49.186Z,944.2
2017-06-15T20:48:57.152Z,944.2
2017-06-15T20:50:05.399Z,944.1
2017-06-15T20:51:13.326Z,944.1
2017-06-15T20:52:21.414Z,944.1
2017-06-15T20:53:29.620Z,944.0
2017-06-15T20:54:37.589Z,944.0
2017-06-15T20:55:45.682Z,944.0
2017-06-15T20:56:53.888Z,944.0
2017-06-15T20:58:01.864Z,944.0
2017-06-15T20:59:10.079Z,944.0
2017-06-15T21:00:18.048Z,944.0
2017-06-15T21:01:26.138Z,944.0
2017-06-15T21:02:34.223Z,944.1
2017-06-15T21:03:42.433Z,944.0
2017-06-15T21:04:50.528Z,944.0
2017-06-15T21:05:58.489Z,944.0
2017-06-15T21:07:06.577Z,944.0
2017-06-15T21:08:14.663Z,943.9
2017-06-15T21:09:22.752Z,943.9
2017-06-15T21:10:30.895Z,943.9
2017-06-15T21:11:38.929Z,943.9
2017-06-15T21:12:47.034Z,943.9
2017-06-15T21:13:55.102Z,943.9
2017-06-15T21:15:03.190Z,944.0
2017-06-15T21:16:11.398Z,944.0
2017-06-15T21:17:19.363Z,944.0
2017-06-15T21:18:27.450Z,944.0
2017-06-15T21:19:35.659Z,944.1
2017-06-15T21:20:43.627Z,944.1
2017-06-15T21:21:51.838Z,944.1
2017-06-15T21:22:59.805Z,944.1
2017-06-15T21:24:07.891Z,944.1
2017-06-15T21:25:16.109Z,944.1
2017-06-15T21:26:24.208Z,944.2
2017-06-15T21:27:32.273Z,944.2
2017-06-15T21:28:40.241Z,944.1
